createdAt,value
2024-04-12T00:02:10.663Z,41.43
2024-04-12T00:04:38.631Z,45.20
2024-04-12T00:07:16.695Z,35.17
2024-04-12T00:09:55.098Z,58.75
2024-04-12T00:12:29.367Z,45.75
2024-04-12T00:15:03.702Z,35.17
2024-04-12T00:17:33.098Z,47.40
2024-04-12T00:20:02.511Z,38.35
2024-04-12T00:22:32.047Z,65.63
2024-04-12T00:25:02.078Z,78.43
2024-04-12T00:27:35.827Z,64.77
2024-04-12T00:30:05.650Z,61.20
2024-04-12T00:32:37.243Z,58.40
2024-04-12T00:35:08.084Z,37.22
2024-04-12T00:37:35.773Z,56.92
2024-04-12T00:40:09.618Z,39.90
2024-04-12T00:42:37.208Z,47.80
2024-04-12T00:45:05.896Z,44.83
2024-04-12T00:47:35.491Z,71.82
2024-04-12T00:50:06.144Z,46.03
2024-04-12T00:52:38.978Z,38.30
2024-04-12T00:55:11.327Z,55.63
2024-04-12T00:57:40.908Z,39.15
2024-04-12T01:00:14.131Z,61.65
2024-04-12T01:02:44.417Z,59.45
2024-04-12T01:05:19.061Z,38.40
2024-04-12T01:07:51.494Z,51.08
2024-04-12T01:10:27.852Z,37.10
2024-04-12T01:13:04.358Z,35.83
2024-04-12T01:15:39.547Z,32.88
2024-04-12T01:18:13.677Z,55.97
2024-04-12T01:20:41.365Z,48.08
2024-04-12T01:23:11.743Z,42.75
2024-04-12T01:25:39.516Z,70.35
2024-04-12T01:28:11.256Z,40.60
2024-04-12T01:30:41.667Z,53.03
2024-04-12T01:33:10.471Z,49.92
2024-04-12T01:35:38.160Z,54.42
2024-04-12T01:38:19.758Z,27.38
2024-04-12T01:40:59.954Z,42.63
2024-04-12T01:43:29.585Z,37.63
2024-04-12T01:45:57.400Z,39.72
2024-04-12T01:48:25.258Z,40.95
2024-04-12T01:50:55.814Z,29.13
2024-04-12T01:53:23.807Z,34.45
2024-04-12T01:55:52.738Z,31.77
2024-04-12T01:58:23.131Z,23.95
2024-04-12T02:00:51.151Z,23.90
2024-04-12T02:03:20.158Z,28.08
2024-04-12T02:05:50.232Z,30.60
2024-04-12T02:08:20.812Z,42.87
2024-04-12T02:10:50.815Z,37.00
2024-04-12T02:13:19.967Z,30.02
2024-04-12T02:15:55.360Z,34.97
2024-04-12T02:18:24.405Z,50.63
2024-04-12T02:20:54.519Z,43.40
2024-04-12T02:23:23.404Z,53.05
2024-04-12T02:25:51.733Z,24.52
2024-04-12T02:28:19.968Z,33.55
2024-04-12T02:30:58.767Z,52.40
2024-04-12T02:33:33.498Z,18.07
2024-04-12T02:36:05.585Z,30.35
2024-04-12T02:38:33.458Z,28.45
2024-04-12T02:41:00.831Z,22.42
2024-04-12T02:43:30.866Z,52.15
2024-04-12T02:45:59.944Z,39.17
2024-04-12T02:48:27.443Z,29.95
2024-04-12T02:50:56.296Z,32.40
2024-04-12T02:53:25.771Z,57.00
2024-04-12T02:56:10.757Z,28.42
2024-04-12T02:58:43.138Z,25.20
2024-04-12T03:01:15.444Z,43.35
2024-04-12T03:03:48.577Z,40.90
2024-04-12T03:06:24.347Z,53.53
2024-04-12T03:08:53.392Z,34.67
2024-04-12T03:11:26.936Z,33.33
2024-04-12T03:14:05.842Z,34.05
2024-04-12T03:16:34.033Z,55.92
2024-04-12T03:19:03.286Z,33.22
2024-04-12T03:21:31.932Z,28.80
2024-04-12T03:23:59.410Z,38.20
2024-04-12T03:26:26.980Z,33.40
2024-04-12T03:28:59.781Z,33.22
2024-04-12T03:31:28.862Z,30.65
2024-04-12T03:33:57.675Z,39.75
2024-04-12T03:36:41.381Z,48.83
2024-04-12T03:39:24.231Z,23.30
2024-04-12T03:42:00.824Z,61.10
2024-04-12T03:44:33.112Z,28.92
2024-04-12T03:47:06.334Z,38.40
2024-04-12T03:49:35.556Z,48.50
2024-04-12T03:52:05.931Z,20.23
2024-04-12T03:54:33.184Z,43.35
2024-04-12T03:57:07.592Z,56.22
2024-04-12T03:59:36.276Z,30.20
2024-04-12T04:02:10.629Z,75.47
2024-04-12T04:04:39.993Z,39.38
2024-04-12T04:07:07.641Z,38.35
2024-04-12T04:09:35.003Z,38.70
2024-04-12T04:12:02.846Z,46.40
2024-04-12T04:14:34.172Z,35.60
2024-04-12T04:17:04.785Z,38.38
2024-04-12T04:19:35.456Z,46.33
2024-04-12T04:22:05.138Z,41.67
2024-04-12T04:24:35.563Z,37.72
2024-04-12T04:27:10.449Z,22.93
2024-04-12T04:29:39.750Z,39.45
2024-04-12T04:32:11.061Z,33.00
2024-04-12T04:34:38.741Z,31.90
2024-04-12T04:37:14.768Z,48.20
2024-04-12T04:39:45.626Z,28.33
2024-04-12T04:42:15.126Z,46.22
2024-04-12T04:44:43.019Z,23.75
2024-04-12T04:47:11.491Z,36.83
2024-04-12T04:49:41.003Z,45.45
2024-04-12T04:52:10.147Z,32.03
2024-04-12T04:54:40.446Z,46.45
2024-04-12T04:57:10.363Z,52.88
2024-04-12T04:59:37.600Z,50.70
2024-04-12T05:02:04.982Z,43.60
2024-04-12T05:04:34.994Z,29.37
2024-04-12T05:07:02.334Z,28.83
2024-04-12T05:09:29.726Z,27.27
2024-04-12T05:11:59.597Z,40.35
2024-04-12T05:14:37.556Z,59.55
2024-04-12T05:17:07.131Z,32.80
2024-04-12T05:19:42.273Z,48.40
2024-04-12T05:22:15.232Z,37.92
2024-04-12T05:24:43.270Z,30.92
2024-04-12T05:27:15.281Z,42.00
2024-04-12T05:29:42.648Z,29.23
2024-04-12T05:32:11.600Z,29.50
2024-04-12T05:34:39.172Z,24.77
2024-04-12T05:37:06.891Z,24.08
2024-04-12T05:39:43.503Z,18.20
2024-04-12T05:42:11.533Z,15.53
2024-04-12T05:44:43.867Z,25.13
2024-04-12T05:47:12.935Z,31.33
2024-04-12T05:49:40.328Z,25.30
2024-04-12T05:52:08.882Z,27.58
2024-04-12T05:54:41.738Z,34.83
2024-04-12T05:57:09.177Z,21.50
2024-04-12T05:59:36.632Z,17.77
2024-04-12T06:02:07.380Z,20.85
2024-04-12T06:04:37.728Z,14.07
2024-04-12T06:07:12.736Z,17.57
2024-04-12T06:09:40.549Z,13.50
2024-04-12T06:12:08.704Z,14.80
2024-04-12T06:14:43.945Z,13.95
2024-04-12T06:17:11.324Z,14.10
2024-04-12T06:19:39.832Z,11.03
2024-04-12T06:22:15.480Z,10.82
2024-04-12T06:24:50.927Z,13.25
2024-04-12T06:27:31.451Z,12.40
2024-04-12T06:30:02.338Z,13.13
2024-04-12T06:32:29.886Z,25.10
2024-04-12T06:34:57.477Z,14.52
2024-04-12T06:37:24.624Z,11.50
2024-04-12T06:39:57.119Z,15.25
2024-04-12T06:42:24.560Z,10.05
2024-04-12T06:44:52.244Z,9.13
2024-04-12T06:47:21.161Z,12.88
2024-04-12T06:49:48.559Z,10.60
2024-04-12T06:52:24.079Z,12.13
2024-04-12T06:54:52.106Z,13.05
2024-04-12T06:57:24.504Z,22.53
2024-04-12T06:59:55.919Z,9.07
2024-04-12T07:02:27.818Z,11.77
2024-04-12T07:04:56.054Z,12.43
2024-04-12T07:07:24.849Z,12.35
2024-04-12T07:10:00.033Z,15.73
2024-04-12T07:12:29.058Z,26.05
2024-04-12T07:14:57.750Z,17.35
2024-04-12T07:17:30.351Z,18.42
2024-04-12T07:20:01.198Z,21.35
2024-04-12T07:22:29.565Z,11.70
2024-04-12T07:24:57.729Z,25.67
2024-04-12T07:27:29.716Z,13.85
2024-04-12T07:29:59.738Z,9.57
2024-04-12T07:32:37.669Z,20.40
2024-04-12T07:35:25.971Z,10.07
2024-04-12T07:38:03.906Z,23.33
2024-04-12T07:40:33.824Z,17.92
2024-04-12T07:43:11.126Z,15.95
2024-04-12T07:45:40.475Z,13.02
2024-04-12T07:48:27.714Z,12.60
2024-04-12T07:51:02.936Z,10.48
2024-04-12T07:53:37.989Z,12.38
2024-04-12T07:56:11.955Z,8.52
2024-04-12T07:58:42.781Z,10.63
2024-04-12T08:01:18.274Z,14.93
2024-04-12T08:03:58.673Z,11.07
2024-04-12T08:06:51.013Z,12.38
2024-04-12T08:09:36.338Z,10.55
2024-04-12T08:12:15.402Z,12.45
2024-04-12T08:15:08.712Z,13.50
2024-04-12T08:17:41.729Z,13.00
2024-04-12T08:20:16.220Z,12.15
2024-04-12T08:22:45.352Z,12.32
2024-04-12T08:25:20.103Z,10.13
2024-04-12T08:27:48.680Z,15.77
2024-04-12T08:30:21.385Z,11.48
2024-04-12T08:32:52.018Z,11.65
2024-04-12T08:35:22.846Z,12.52
2024-04-12T08:37:55.253Z,15.85
2024-04-12T08:40:27.184Z,12.40
2024-04-12T08:43:11.464Z,13.98
2024-04-12T08:45:45.286Z,10.15
2024-04-12T08:48:14.189Z,10.90
2024-04-12T08:50:42.034Z,13.45
2024-04-12T08:53:16.568Z,14.53
2024-04-12T08:55:47.506Z,12.77
2024-04-12T08:58:22.850Z,9.43
2024-04-12T09:00:54.500Z,12.25
2024-04-12T09:03:28.530Z,14.68
2024-04-12T09:05:58.135Z,10.57
2024-04-12T09:08:33.281Z,10.05
2024-04-12T09:11:05.236Z,13.15
2024-04-12T09:13:35.130Z,13.75
2024-04-12T09:16:05.127Z,8.25
2024-04-12T09:18:47.004Z,12.07
2024-04-12T09:21:26.963Z,12.50
2024-04-12T09:24:12.016Z,11.80
2024-04-12T09:26:57.205Z,12.40
2024-04-12T09:29:31.166Z,10.57
2024-04-12T09:32:17.836Z,12.23
2024-04-12T09:34:57.557Z,9.57
2024-04-12T09:37:33.378Z,15.10
2024-04-12T09:40:03.773Z,10.60
2024-04-12T09:43:12.424Z,12.27
2024-04-12T09:45:47.835Z,10.80
2024-04-12T09:48:38.637Z,12.15
2024-04-12T09:51:25.762Z,10.45
2024-04-12T09:54:12.191Z,12.13
2024-04-12T09:56:59.821Z,11.65
2024-04-12T09:59:50.130Z,10.00
2024-04-12T10:02:38.549Z,11.05
2024-04-12T10:05:29.133Z,14.77
2024-04-12T10:08:26.413Z,13.05
2024-04-12T10:11:13.884Z,13.25
2024-04-12T10:14:01.388Z,14.17
2024-04-12T10:16:47.082Z,13.38
2024-04-12T10:19:33.189Z,13.60
2024-04-12T10:22:30.597Z,13.07
2024-04-12T10:25:17.220Z,13.88
2024-04-12T10:28:08.870Z,15.13
2024-04-12T10:31:04.364Z,12.07
2024-04-12T10:34:00.608Z,8.52
2024-04-12T10:36:48.069Z,13.23
2024-04-12T10:39:16.194Z,14.57
2024-04-12T10:41:47.523Z,13.00
2024-04-12T10:44:14.914Z,14.68
2024-04-12T10:46:43.004Z,13.90
2024-04-12T10:49:11.311Z,13.82
2024-04-12T10:51:41.328Z,13.88
2024-04-12T10:54:13.463Z,15.40
2024-04-12T10:56:47.439Z,14.20
2024-04-12T10:59:28.617Z,14.43
2024-04-12T11:02:01.717Z,11.75
2024-04-12T11:04:49.350Z,13.07
2024-04-12T11:07:16.657Z,14.07
2024-04-12T11:09:59.126Z,14.02
2024-04-12T11:12:30.764Z,13.40
2024-04-12T11:15:36.469Z,14.60
2024-04-12T11:18:26.901Z,15.25
2024-04-12T11:21:38.049Z,11.50
2024-04-12T11:24:24.725Z,10.25
2024-04-12T11:27:10.475Z,13.82
2024-04-12T11:29:59.531Z,14.32
2024-04-12T11:32:26.945Z,15.68
2024-04-12T11:34:57.136Z,15.03
2024-04-12T11:37:26.302Z,15.27
2024-04-12T11:39:54.550Z,20.88
2024-04-12T11:42:21.790Z,16.75
2024-04-12T11:44:49.914Z,18.30
2024-04-12T11:47:18.345Z,19.23
2024-04-12T11:49:51.024Z,15.68
2024-04-12T11:52:19.318Z,10.90
2024-04-12T11:54:53.283Z,14.65
2024-04-12T11:57:28.742Z,15.00
2024-04-12T12:00:01.983Z,16.47
2024-04-12T12:02:30.447Z,12.55
2024-04-12T12:04:58.887Z,15.23
2024-04-12T12:07:28.490Z,11.90
2024-04-12T12:09:56.703Z,14.10
2024-04-12T12:12:24.300Z,14.90
2024-04-12T12:14:54.573Z,22.05
2024-04-12T12:17:24.209Z,13.75
2024-04-12T12:19:53.245Z,17.83
2024-04-12T12:22:23.481Z,11.27
2024-04-12T12:24:51.183Z,19.67
2024-04-12T12:27:25.293Z,14.63
2024-04-12T12:29:58.391Z,19.70
2024-04-12T12:32:27.311Z,12.70
2024-04-12T12:34:56.327Z,15.85
2024-04-12T12:37:25.897Z,14.70
2024-04-12T12:39:53.283Z,14.35
2024-04-12T12:42:22.315Z,13.57
2024-04-12T12:44:49.520Z,14.00
2024-04-12T12:47:21.991Z,12.38
2024-04-12T12:49:49.397Z,15.80
2024-04-12T12:52:16.529Z,17.05
2024-04-12T12:54:45.172Z,13.75
2024-04-12T12:57:15.535Z,13.85
2024-04-12T12:59:45.452Z,13.10
2024-04-12T13:02:16.966Z,16.50
2024-04-12T13:04:48.406Z,16.90
2024-04-12T13:07:18.993Z,18.88
2024-04-12T13:09:55.696Z,17.05
2024-04-12T13:12:31.099Z,16.45
2024-04-12T13:15:01.981Z,17.90
2024-04-12T13:17:29.553Z,15.65
2024-04-12T13:19:58.775Z,11.45
2024-04-12T13:22:26.090Z,16.60
2024-04-12T13:24:53.299Z,17.83
2024-04-12T13:27:34.709Z,16.20
2024-04-12T13:30:03.543Z,12.95
2024-04-12T13:32:32.320Z,16.65
2024-04-12T13:34:59.893Z,17.75
2024-04-12T13:37:31.529Z,19.40
2024-04-12T13:40:01.296Z,18.60
2024-04-12T13:42:29.551Z,24.75
2024-04-12T13:45:18.725Z,20.33
2024-04-12T13:48:05.806Z,15.52
2024-04-12T13:50:57.796Z,12.90
2024-04-12T13:53:37.724Z,17.67
2024-04-12T13:56:24.246Z,12.23
2024-04-12T13:59:03.266Z,11.88
2024-04-12T14:01:31.604Z,11.35
2024-04-12T14:04:11.467Z,12.35
2024-04-12T14:06:39.447Z,27.47
2024-04-12T14:09:14.384Z,12.52
2024-04-12T14:11:43.099Z,12.52
2024-04-12T14:14:11.336Z,15.82
2024-04-12T14:16:43.764Z,10.18
2024-04-12T14:19:22.185Z,11.63
2024-04-12T14:21:53.863Z,9.23
2024-04-12T14:24:42.175Z,10.80
2024-04-12T14:27:10.225Z,10.85
2024-04-12T14:29:40.813Z,11.45
2024-04-12T14:32:08.924Z,13.37
2024-04-12T14:34:37.475Z,10.80
2024-04-12T14:37:06.066Z,11.30
2024-04-12T14:39:34.551Z,10.25
2024-04-12T14:42:04.169Z,15.73
2024-04-12T14:44:40.143Z,12.53
2024-04-12T14:47:08.519Z,12.77
2024-04-12T14:49:35.747Z,11.55
2024-04-12T14:52:03.081Z,15.13
2024-04-12T14:54:33.328Z,18.63
2024-04-12T14:57:00.599Z,16.23
2024-04-12T14:59:39.044Z,16.02
2024-04-12T15:02:07.567Z,15.50
2024-04-12T15:04:53.199Z,13.57
2024-04-12T15:07:38.915Z,13.63
2024-04-12T15:10:25.560Z,12.97
2024-04-12T15:13:11.417Z,14.90
2024-04-12T15:16:02.779Z,23.20
2024-04-12T15:18:48.778Z,14.18
2024-04-12T15:21:34.747Z,19.42
2024-04-12T15:24:20.512Z,20.10
2024-04-12T15:27:06.695Z,16.35
2024-04-12T15:30:05.489Z,20.05
2024-04-12T15:32:51.505Z,17.33
2024-04-12T15:35:43.923Z,20.15
2024-04-12T15:38:29.816Z,22.97
2024-04-12T15:41:15.690Z,22.95
2024-04-12T15:44:01.521Z,21.30
2024-04-12T15:46:47.127Z,22.52
